Time;durP1;ratioP1;P1;durP2;ratioP2;P2;SDS_P1;SDS_P2;PMS_P1;PMS_P2;Temp;Humidity;BMP_temperature;BMP_pressure;BME280_temperature;BME280_humidity;BME280_pressure;Samples;Min_cycle;Max_cycle;Signal;HPM_P1;HPM_P2
2022/06/28 00:01:40;;;;;;;3.83;3.40;;;;;;;;;;5015225;28;20076;-69
2022/06/28 00:04:07;;;;;;;3.83;3.42;;;;;;;;;;4997698;28;20030;-70
2022/06/28 00:06:33;;;;;;;3.40;3.10;;;;;;;;;;4997643;28;20053;-69
2022/06/28 00:08:58;;;;;;;3.67;3.33;;;;;;;;;;5015203;28;20030;-70
2022/06/28 00:11:24;;;;;;;3.33;3.03;;;;;;;;;;5014950;28;20153;-70
2022/06/28 00:13:50;;;;;;;3.90;3.60;;;;;;;;;;5015231;28;20044;-69
2022/06/28 00:16:16;;;;;;;3.92;3.60;;;;;;;;;;5015014;28;20022;-69
2022/06/28 00:18:42;;;;;;;3.75;3.50;;;;;;;;;;5014870;28;20022;-70
2022/06/28 00:21:08;;;;;;;5.13;3.90;;;;;;;;;;5015074;28;20527;-69
2022/06/28 00:23:35;;;;;;;3.75;2.95;;;;;;;;;;5014766;28;20021;-68
2022/06/28 00:26:00;;;;;;;3.40;3.10;;;;;;;;;;5014951;28;20025;-68
2022/06/28 00:28:26;;;;;;;3.40;3.20;;;;;;;;;;4997370;28;20415;-69
2022/06/28 00:30:51;;;;;;;4.80;3.30;;;;;;;;;;4996481;28;20061;-68
2022/06/28 00:33:17;;;;;;;3.00;2.80;;;;;;;;;;4997293;28;20407;-68
2022/06/28 00:35:42;;;;;;;3.50;3.20;;;;;;;;;;4996922;28;20060;-68
2022/06/28 00:38:08;;;;;;;3.85;3.33;;;;;;;;;;5014809;28;20032;-70
2022/06/28 00:40:45;;;;;;;5.25;3.55;;;;;;;;;;5014999;28;20037;-69
2022/06/28 00:43:11;;;;;;;3.85;3.42;;;;;;;;;;5014494;28;20041;-68
2022/06/28 00:45:37;;;;;;;3.28;2.95;;;;;;;;;;4996812;28;20013;-70
2022/06/28 00:48:02;;;;;;;3.75;3.50;;;;;;;;;;4997244;28;20468;-68
2022/06/28 00:50:28;;;;;;;3.90;3.63;;;;;;;;;;5014615;28;20026;-68
2022/06/28 00:53:08;;;;;;;3.35;3.15;;;;;;;;;;5014239;28;20050;-68
2022/06/28 00:55:34;;;;;;;4.88;3.50;;;;;;;;;;4996668;28;20088;-68
2022/06/28 00:58:00;;;;;;;3.55;3.25;;;;;;;;;;4996602;28;20026;-69
2022/06/28 01:00:26;;;;;;;3.53;3.28;;;;;;;;;;4996516;28;20026;-69
2022/06/28 01:02:52;;;;;;;3.63;3.30;;;;;;;;;;5014111;28;20029;-70
2022/06/28 01:05:17;;;;;;;3.80;3.50;;;;;;;;;;5014113;28;20392;-70
2022/06/28 01:07:43;;;;;;;4.10;3.75;;;;;;;;;;4996296;28;20045;-70
2022/06/28 01:10:10;;;;;;;3.65;3.35;;;;;;;;;;4997241;28;20088;-70
2022/06/28 01:12:37;;;;;;;5.20;3.92;;;;;;;;;;4996685;28;20080;-67
2022/06/28 01:15:02;;;;;;;3.85;3.45;;;;;;;;;;5014627;28;20033;-67
2022/06/28 01:17:46;;;;;;;3.72;3.45;;;;;;;;;;5014495;28;20025;-69
2022/06/28 01:20:31;;;;;;;3.38;3.08;;;;;;;;;;5014188;28;20052;-68
2022/06/28 01:23:04;;;;;;;3.28;3.05;;;;;;;;;;5013864;28;20070;-68
2022/06/28 01:25:29;;;;;;;3.80;3.60;;;;;;;;;;4996257;28;20473;-69
2022/06/28 01:27:55;;;;;;;3.53;3.28;;;;;;;;;;4996158;28;20014;-69
2022/06/28 01:30:21;;;;;;;3.65;3.35;;;;;;;;;;4996242;28;20026;-68
2022/06/28 01:32:55;;;;;;;3.67;3.38;;;;;;;;;;5014275;28;20088;-70
2022/06/28 01:35:21;;;;;;;3.90;3.60;;;;;;;;;;4996180;28;20030;-69
2022/06/28 01:37:49;;;;;;;3.85;3.55;;;;;;;;;;4996191;28;20021;-69
2022/06/28 01:40:16;;;;;;;4.95;3.65;;;;;;;;;;4996660;28;20416;-69
2022/06/28 01:42:42;;;;;;;3.78;3.50;;;;;;;;;;4996982;28;20018;-68
2022/06/28 01:45:07;;;;;;;3.92;3.10;;;;;;;;;;5000154;28;20030;-68
2022/06/28 01:50:25;;;;;;;3.63;3.33;;;;;;;;;;5070808;28;20478;-71
2022/06/28 01:52:51;;;;;;;3.80;3.50;;;;;;;;;;5069720;28;20025;-72
2022/06/28 01:55:41;;;;;;;4.13;3.80;;;;;;;;;;5067053;28;20115;-70
2022/06/28 01:58:18;;;;;;;5.63;3.97;;;;;;;;;;5069626;28;20067;-71
2022/06/28 02:00:44;;;;;;;3.55;3.35;;;;;;;;;;5070294;28;20032;-70
2022/06/28 02:03:10;;;;;;;6.20;4.03;;;;;;;;;;5070383;28;20013;-71
2022/06/28 02:06:01;;;;;;;3.90;3.55;;;;;;;;;;5070363;28;20425;-71
2022/06/28 02:08:27;;;;;;;4.20;3.90;;;;;;;;;;5069364;28;20032;-71
2022/06/28 02:10:58;;;;;;;;;;;;;;;;;;5069831;28;20394;-71
2022/06/28 02:13:25;;;;;;;4.55;4.25;;;;;;;;;;5086471;28;20011;-71
2022/06/28 02:15:50;;;;;;;4.63;4.30;;;;;;;;;;5069999;28;20044;-71
2022/06/28 02:18:16;;;;;;;4.40;4.10;;;;;;;;;;5069840;28;20377;-70
2022/06/28 02:20:42;;;;;;;4.07;3.80;;;;;;;;;;5052917;28;20024;-70
2022/06/28 02:23:08;;;;;;;4.25;3.90;;;;;;;;;;5069167;28;20035;-70
2022/06/28 02:25:34;;;;;;;4.55;3.95;;;;;;;;;;5069111;28;20025;-69
2022/06/28 02:27:59;;;;;;;5.32;3.60;;;;;;;;;;5070490;28;20040;-70
2022/06/28 02:30:25;;;;;;;3.97;3.67;;;;;;;;;;5069581;28;20520;-71
2022/06/28 02:32:51;;;;;;;4.80;3.90;;;;;;;;;;5068969;28;20025;-71
2022/06/28 02:40:45;;;;;;;4.25;3.92;;;;;;;;;;5068758;28;20044;-71
2022/06/28 02:43:10;;;;;;;4.72;4.32;;;;;;;;;;5069999;28;20024;-71
2022/06/28 02:45:36;;;;;;;4.57;4.28;;;;;;;;;;5070221;28;20031;-70
2022/06/28 02:48:01;;;;;;;4.07;3.80;;;;;;;;;;5068420;28;20016;-71
2022/06/28 02:50:28;;;;;;;4.75;4.45;;;;;;;;;;5068837;28;20116;-70
2022/06/28 02:52:54;;;;;;;5.00;4.32;;;;;;;;;;5051933;28;20156;-70
2022/06/28 02:55:19;;;;;;;4.57;3.75;;;;;;;;;;5068432;28;20079;-69
2022/06/28 02:57:46;;;;;;;6.65;3.60;;;;;;;;;;5069622;28;20090;-74
2022/06/28 03:00:13;;;;;;;5.40;4.00;;;;;;;;;;5063849;28;20036;-74
2022/06/28 03:02:41;;;;;;;4.70;4.03;;;;;;;;;;5055511;28;20025;-74
2022/06/28 03:05:09;;;;;;;4.70;4.30;;;;;;;;;;5055412;28;20091;-75
2022/06/28 03:07:36;;;;;;;4.13;3.83;;;;;;;;;;5055293;28;20525;-75
2022/06/28 03:10:02;;;;;;;6.63;4.18;;;;;;;;;;5055167;28;20078;-74
2022/06/28 03:12:28;;;;;;;4.28;3.95;;;;;;;;;;5056672;28;20024;-75
2022/06/28 03:14:54;;;;;;;4.53;4.13;;;;;;;;;;5055124;28;20029;-74
2022/06/28 03:17:19;;;;;;;4.82;4.43;;;;;;;;;;5056663;28;20566;-75
2022/06/28 03:19:45;;;;;;;16.05;5.68;;;;;;;;;;5056473;28;20032;-74
2022/06/28 03:22:11;;;;;;;5.93;4.82;;;;;;;;;;5054816;28;20360;-74
2022/06/28 03:24:37;;;;;;;5.13;4.38;;;;;;;;;;5055094;28;20071;-74
2022/06/28 03:27:03;;;;;;;6.07;4.75;;;;;;;;;;5055282;28;20465;-74
2022/06/28 03:29:28;;;;;;;5.78;4.43;;;;;;;;;;5055082;28;20031;-75
2022/06/28 03:31:54;;;;;;;4.72;4.40;;;;;;;;;;5054664;28;20009;-75
2022/06/28 03:34:19;;;;;;;4.88;4.45;;;;;;;;;;5054679;28;20025;-75
2022/06/28 03:36:46;;;;;;;4.47;4.20;;;;;;;;;;5055036;28;20020;-74
2022/06/28 03:39:35;;;;;;;5.82;4.25;;;;;;;;;;5054975;28;20037;-71
2022/06/28 03:42:01;;;;;;;4.97;4.40;;;;;;;;;;5054666;28;20115;-70
2022/06/28 03:44:28;;;;;;;7.90;4.25;;;;;;;;;;5054421;28;20029;-70
2022/06/28 03:46:54;;;;;;;4.60;4.20;;;;;;;;;;5054918;28;20086;-71
2022/06/28 03:49:38;;;;;;;4.72;4.38;;;;;;;;;;5055846;28;20084;-70
2022/06/28 03:52:14;;;;;;;5.03;4.22;;;;;;;;;;5055442;28;20407;-75
2022/06/28 03:55:00;;;;;;;5.07;4.55;;;;;;;;;;5054288;28;20606;-69
2022/06/28 03:57:45;;;;;;;4.65;4.25;;;;;;;;;;5053377;28;20032;-76
2022/06/28 04:00:12;;;;;;;4.85;4.47;;;;;;;;;;5054675;28;20082;-76
2022/06/28 04:02:44;;;;;;;4.65;4.07;;;;;;;;;;5051148;28;20021;-76
2022/06/28 04:05:17;;;;;;;4.93;4.60;;;;;;;;;;5053680;28;20433;-76
2022/06/28 04:07:43;;;;;;;5.15;4.60;;;;;;;;;;5052253;28;20078;-76
2022/06/28 04:10:09;;;;;;;5.07;4.18;;;;;;;;;;5052165;28;20070;-75
2022/06/28 04:12:35;;;;;;;5.57;5.18;;;;;;;;;;5052056;28;20079;-75
2022/06/28 04:15:14;;;;;;;6.18;5.45;;;;;;;;;;5053702;28;20048;-76
2022/06/28 04:17:41;;;;;;;7.38;5.13;;;;;;;;;;5052654;28;20075;-76
2022/06/28 04:20:26;;;;;;;6.25;5.65;;;;;;;;;;5053242;28;20451;-76
2022/06/28 04:22:59;;;;;;;9.10;6.18;;;;;;;;;;5053261;28;20025;-75
2022/06/28 04:25:26;;;;;;;7.80;6.22;;;;;;;;;;5052613;28;20040;-76
2022/06/28 04:27:56;;;;;;;8.18;6.25;;;;;;;;;;5051723;28;20017;-76
2022/06/28 04:30:22;;;;;;;;;;;;;;;;;;5052719;28;20037;-75
2022/06/28 04:32:52;;;;;;;8.70;6.45;;;;;;;;;;5035636;28;19912;-75
2022/06/28 04:35:20;;;;;;;7.45;6.38;;;;;;;;;;5051430;28;20029;-74
2022/06/28 04:37:45;;;;;;;6.30;5.70;;;;;;;;;;5051723;28;20024;-76
2022/06/28 04:40:20;;;;;;;6.45;5.75;;;;;;;;;;5052221;28;20486;-76
2022/06/28 04:42:57;;;;;;;5.70;5.32;;;;;;;;;;5053461;28;20336;-76
2022/06/28 04:45:22;;;;;;;20.38;7.78;;;;;;;;;;5052162;28;20131;-76
2022/06/28 04:48:02;;;;;;;5.57;4.88;;;;;;;;;;5037199;28;20494;-75
2022/06/28 04:50:28;;;;;;;4.95;4.65;;;;;;;;;;5052279;28;20032;-75
2022/06/28 04:52:54;;;;;;;5.90;5.40;;;;;;;;;;5035689;28;20033;-75
2022/06/28 04:55:20;;;;;;;5.70;5.22;;;;;;;;;;5052075;28;20025;-75
2022/06/28 04:57:57;;;;;;;6.32;5.60;;;;;;;;;;5053268;28;20019;-76
2022/06/28 05:00:23;;;;;;;6.45;5.20;;;;;;;;;;5051919;28;20061;-76
2022/06/28 05:03:01;;;;;;;5.50;5.10;;;;;;;;;;5051841;28;20021;-76
2022/06/28 05:05:45;;;;;;;5.70;4.88;;;;;;;;;;5052535;28;20044;-77
2022/06/28 05:08:11;;;;;;;6.72;6.22;;;;;;;;;;5052145;28;20383;-74
2022/06/28 05:10:52;;;;;;;8.10;6.50;;;;;;;;;;5053135;28;20378;-75
2022/06/28 05:13:46;;;;;;;7.78;6.78;;;;;;;;;;5051810;28;20028;-75
2022/06/28 05:16:15;;;;;;;8.60;6.63;;;;;;;;;;5051901;28;20037;-74
2022/06/28 05:18:43;;;;;;;10.55;6.85;;;;;;;;;;5051718;28;20060;-74
2022/06/28 05:21:11;;;;;;;7.70;6.45;;;;;;;;;;5051673;28;20021;-74
2022/06/28 05:23:38;;;;;;;7.25;6.57;;;;;;;;;;5035008;28;20021;-74
2022/06/28 05:26:24;;;;;;;14.73;6.70;;;;;;;;;;5053046;28;20071;-74
2022/06/28 05:29:22;;;;;;;10.02;6.15;;;;;;;;;;5049317;28;20033;-74
2022/06/28 05:31:51;;;;;;;7.75;5.85;;;;;;;;;;5052994;28;20091;-74
2022/06/28 05:34:16;;;;;;;8.90;6.60;;;;;;;;;;5052063;28;20075;-74
2022/06/28 05:36:44;;;;;;;8.00;6.20;;;;;;;;;;5053045;28;20045;-74
2022/06/28 05:39:11;;;;;;;7.90;7.20;;;;;;;;;;5051471;28;20025;-74
2022/06/28 05:41:38;;;;;;;6.40;5.80;;;;;;;;;;5052706;28;20035;-74
2022/06/28 05:44:04;;;;;;;7.45;6.00;;;;;;;;;;5051217;28;20025;-74
2022/06/28 05:46:30;;;;;;;9.73;5.90;;;;;;;;;;5051084;28;20033;-74
2022/06/28 05:48:56;;;;;;;9.05;5.78;;;;;;;;;;5052246;28;20053;-74
2022/06/28 05:51:21;;;;;;;7.85;5.68;;;;;;;;;;5051099;28;20028;-74
2022/06/28 05:53:47;;;;;;;5.88;5.25;;;;;;;;;;5051027;28;20025;-74
2022/06/28 05:56:12;;;;;;;6.07;5.50;;;;;;;;;;5051093;28;20025;-74
2022/06/28 05:58:38;;;;;;;5.57;4.43;;;;;;;;;;5051167;28;20024;-73
2022/06/28 06:01:04;;;;;;;7.43;4.88;;;;;;;;;;5051097;28;20029;-74
2022/06/28 06:03:32;;;;;;;5.55;5.05;;;;;;;;;;5034663;28;20021;-73
2022/06/28 06:05:57;;;;;;;6.55;5.38;;;;;;;;;;5051026;28;20029;-74
2022/06/28 06:08:23;;;;;;;8.70;4.97;;;;;;;;;;5051156;28;20017;-74
2022/06/28 06:10:48;;;;;;;6.90;4.90;;;;;;;;;;5052268;28;20036;-74
2022/06/28 06:13:14;;;;;;;7.50;5.13;;;;;;;;;;5050878;28;20017;-74
2022/06/28 06:15:39;;;;;;;9.32;5.30;;;;;;;;;;5050813;28;20116;-74
2022/06/28 06:18:05;;;;;;;7.43;5.60;;;;;;;;;;5052116;28;20017;-74
2022/06/28 06:20:30;;;;;;;10.95;6.25;;;;;;;;;;5050902;28;20045;-74
2022/06/28 06:22:56;;;;;;;15.52;6.75;;;;;;;;;;5050743;28;20356;-73
2022/06/28 06:25:44;;;;;;;15.40;7.15;;;;;;;;;;5051213;28;20021;-74
2022/06/28 06:28:10;;;;;;;10.07;6.85;;;;;;;;;;5051744;28;20025;-73
2022/06/28 06:30:36;;;;;;;10.15;6.20;;;;;;;;;;5051862;28;20058;-73
2022/06/28 06:33:24;;;;;;;9.38;6.07;;;;;;;;;;5051730;28;20029;-74
2022/06/28 06:36:09;;;;;;;9.50;5.88;;;;;;;;;;5053265;28;20021;-73
2022/06/28 06:38:35;;;;;;;11.35;5.60;;;;;;;;;;5055152;28;20036;-74
2022/06/28 06:41:00;;;;;;;8.38;6.32;;;;;;;;;;5055187;28;20042;-73
2022/06/28 06:43:26;;;;;;;10.32;6.60;;;;;;;;;;5055217;28;20128;-73
2022/06/28 06:46:02;;;;;;;11.30;5.97;;;;;;;;;;5055232;28;20025;-73
2022/06/28 06:48:27;;;;;;;8.50;6.40;;;;;;;;;;5056228;28;20056;-74
2022/06/28 06:50:52;;;;;;;9.45;6.90;;;;;;;;;;5056776;28;20044;-73
2022/06/28 06:53:21;;;;;;;9.93;6.35;;;;;;;;;;5055264;28;20029;-74
2022/06/28 06:55:49;;;;;;;8.57;5.00;;;;;;;;;;5055227;28;20024;-73
2022/06/28 06:58:15;;;;;;;8.98;6.82;;;;;;;;;;5055208;28;20024;-73
2022/06/28 07:00:41;;;;;;;14.73;6.60;;;;;;;;;;5055111;28;20032;-73
2022/06/28 07:03:06;;;;;;;7.78;6.20;;;;;;;;;;5055022;28;20540;-73
2022/06/28 07:05:32;;;;;;;8.13;5.43;;;;;;;;;;5055013;28;20017;-73
2022/06/28 07:07:58;;;;;;;6.60;5.32;;;;;;;;;;5055020;28;20037;-73
2022/06/28 07:10:30;;;;;;;9.85;4.82;;;;;;;;;;5054859;28;20044;-73
2022/06/28 07:12:56;;;;;;;7.50;4.70;;;;;;;;;;5056161;28;20025;-74
2022/06/28 07:15:21;;;;;;;14.77;6.03;;;;;;;;;;5054818;28;20375;-73
2022/06/28 07:17:47;;;;;;;6.22;5.60;;;;;;;;;;5054806;28;20167;-73
2022/06/28 07:20:12;;;;;;;8.77;3.88;;;;;;;;;;5056079;28;20356;-74
2022/06/28 07:22:37;;;;;;;5.75;5.22;;;;;;;;;;5054743;28;20025;-73
2022/06/28 07:25:10;;;;;;;7.97;5.38;;;;;;;;;;5055062;28;20115;-73
2022/06/28 07:27:36;;;;;;;8.93;5.95;;;;;;;;;;5055015;28;20110;-73
2022/06/28 07:30:01;;;;;;;9.63;6.13;;;;;;;;;;5054546;28;20021;-73
2022/06/28 07:32:27;;;;;;;6.38;5.78;;;;;;;;;;5055805;28;20021;-73
2022/06/28 07:34:52;;;;;;;7.88;5.07;;;;;;;;;;5054513;28;20029;-74
2022/06/28 07:37:18;;;;;;;8.93;5.50;;;;;;;;;;5055849;28;20040;-73
2022/06/28 07:39:46;;;;;;;6.20;5.32;;;;;;;;;;5054475;28;20024;-74
2022/06/28 07:42:30;;;;;;;7.10;5.50;;;;;;;;;;5056043;28;20140;-74
2022/06/28 07:44:56;;;;;;;6.30;5.25;;;;;;;;;;5055893;28;20072;-73
2022/06/28 07:47:21;;;;;;;7.05;4.85;;;;;;;;;;5054165;28;20044;-73
2022/06/28 07:52:34;;;;;;;6.30;4.55;;;;;;;;;;5054163;28;20048;-74
2022/06/28 07:55:01;;;;;;;5.03;4.63;;;;;;;;;;5053766;28;20013;-73
2022/06/28 07:57:53;;;;;;;7.22;4.72;;;;;;;;;;5054117;28;20037;-73
2022/06/28 08:00:21;;;;;;;8.13;5.13;;;;;;;;;;5053965;28;20033;-73
2022/06/28 08:02:56;;;;;;;5.20;4.80;;;;;;;;;;5053994;28;20500;-74
2022/06/28 08:05:22;;;;;;;8.20;4.80;;;;;;;;;;5053920;28;20065;-74
2022/06/28 08:07:48;;;;;;;5.20;4.18;;;;;;;;;;5052995;28;20025;-74
2022/06/28 08:10:15;;;;;;;4.22;3.90;;;;;;;;;;5052721;28;20252;-73
2022/06/28 08:12:40;;;;;;;9.35;4.65;;;;;;;;;;5052721;28;20017;-73
2022/06/28 08:15:07;;;;;;;4.47;4.07;;;;;;;;;;5053992;28;20029;-75
2022/06/28 08:17:33;;;;;;;5.75;4.75;;;;;;;;;;5052623;28;20017;-75
2022/06/28 08:19:58;;;;;;;5.07;4.57;;;;;;;;;;5052540;28;20032;-74
2022/06/28 08:22:23;;;;;;;8.98;4.65;;;;;;;;;;5052459;28;20021;-76
2022/06/28 08:24:49;;;;;;;4.80;4.40;;;;;;;;;;5052393;28;20036;-74
2022/06/28 08:27:14;;;;;;;5.18;4.05;;;;;;;;;;5052523;28;20395;-75
2022/06/28 08:29:45;;;;;;;5.65;4.60;;;;;;;;;;5052347;28;20394;-75
2022/06/28 08:32:11;;;;;;;5.75;5.05;;;;;;;;;;5052398;28;20040;-74
2022/06/28 08:34:37;;;;;;;5.15;4.40;;;;;;;;;;5052307;28;20013;-75
2022/06/28 08:37:03;;;;;;;5.82;4.82;;;;;;;;;;5053542;28;20033;-74
2022/06/28 08:39:28;;;;;;;6.80;4.90;;;;;;;;;;5035528;28;20078;-75
2022/06/28 08:41:55;;;;;;;4.88;4.22;;;;;;;;;;5053477;28;20107;-75
2022/06/28 08:44:21;;;;;;;5.13;4.63;;;;;;;;;;5053515;28;20044;-74
2022/06/28 08:46:53;;;;;;;5.10;4.57;;;;;;;;;;5053289;28;20084;-75
2022/06/28 08:49:25;;;;;;;4.80;4.38;;;;;;;;;;5053050;28;20040;-75
2022/06/28 08:51:52;;;;;;;5.65;4.20;;;;;;;;;;5053259;28;20067;-75
2022/06/28 08:54:19;;;;;;;4.95;3.88;;;;;;;;;;5053543;28;20044;-77
2022/06/28 08:56:46;;;;;;;4.80;3.92;;;;;;;;;;5053208;28;20509;-77
2022/06/28 08:59:13;;;;;;;5.10;4.30;;;;;;;;;;5052546;28;20021;-77
2022/06/28 09:01:39;;;;;;;4.57;4.22;;;;;;;;;;5051834;28;20534;-77
2022/06/28 09:04:06;;;;;;;4.53;4.03;;;;;;;;;;5053091;28;20108;-77
2022/06/28 09:06:32;;;;;;;4.72;4.28;;;;;;;;;;5053050;28;20032;-77
2022/06/28 09:08:57;;;;;;;5.78;4.55;;;;;;;;;;5052845;28;20013;-77
2022/06/28 09:11:23;;;;;;;5.45;3.85;;;;;;;;;;5052976;28;20364;-78
2022/06/28 09:13:48;;;;;;;4.78;4.38;;;;;;;;;;5051692;28;20028;-73
2022/06/28 09:16:14;;;;;;;4.43;3.50;;;;;;;;;;5052972;28;20498;-75
2022/06/28 09:18:39;;;;;;;4.47;4.13;;;;;;;;;;5052849;28;20106;-75
2022/06/28 09:21:06;;;;;;;6.38;4.38;;;;;;;;;;5052790;28;20032;-74
2022/06/28 09:23:35;;;;;;;5.32;4.38;;;;;;;;;;5051577;28;20430;-76
2022/06/28 09:26:08;;;;;;;7.10;4.70;;;;;;;;;;5052815;28;20031;-77
2022/06/28 09:28:34;;;;;;;5.03;4.55;;;;;;;;;;5052609;28;20024;-76
2022/06/28 09:31:15;;;;;;;5.80;4.55;;;;;;;;;;5052622;28;20009;-76
2022/06/28 09:33:44;;;;;;;7.30;4.90;;;;;;;;;;5052539;28;20029;-75
2022/06/28 09:36:11;;;;;;;5.68;4.45;;;;;;;;;;5052615;28;20032;-76
2022/06/28 09:38:37;;;;;;;7.25;5.28;;;;;;;;;;5052550;28;20032;-75
2022/06/28 09:41:03;;;;;;;6.05;5.18;;;;;;;;;;5052484;28;20016;-76
2022/06/28 09:43:33;;;;;;;9.48;6.00;;;;;;;;;;5052508;28;20043;-76
2022/06/28 09:46:02;;;;;;;7.10;5.90;;;;;;;;;;5051201;28;20033;-76
2022/06/28 09:48:31;;;;;;;7.10;5.50;;;;;;;;;;5051990;28;20136;-75
2022/06/28 09:50:57;;;;;;;6.32;5.75;;;;;;;;;;5051120;28;20086;-75
2022/06/28 09:53:24;;;;;;;7.75;5.60;;;;;;;;;;5052385;28;20113;-76
2022/06/28 09:55:51;;;;;;;9.07;6.50;;;;;;;;;;5051186;28;20490;-75
2022/06/28 09:58:17;;;;;;;5.88;5.38;;;;;;;;;;5052363;28;20017;-75
2022/06/28 10:00:43;;;;;;;9.45;6.75;;;;;;;;;;5052368;28;20032;-75
2022/06/28 10:03:08;;;;;;;6.28;5.68;;;;;;;;;;5052665;28;20009;-75
2022/06/28 10:05:34;;;;;;;6.35;5.75;;;;;;;;;;5052454;28;20467;-75
2022/06/28 10:07:59;;;;;;;7.43;5.78;;;;;;;;;;5051069;28;20021;-75
2022/06/28 10:10:25;;;;;;;8.52;5.70;;;;;;;;;;5053090;28;20083;-76
2022/06/28 10:15:47;;;;;;;5.85;5.22;;;;;;;;;;5055431;28;20091;-76
2022/06/28 10:18:17;;;;;;;3.00;2.80;;;;;;;;;;5055101;28;20029;-75
2022/06/28 10:20:46;;;;;;;7.18;6.22;;;;;;;;;;5055000;28;20044;-76
2022/06/28 10:23:33;;;;;;;7.97;6.22;;;;;;;;;;5056099;28;20028;-76
2022/06/28 10:26:13;;;;;;;12.60;6.47;;;;;;;;;;5056099;28;20069;-76
2022/06/28 10:28:42;;;;;;;13.45;7.10;;;;;;;;;;5054631;28;20040;-76
2022/06/28 10:31:22;;;;;;;26.65;8.57;;;;;;;;;;5056153;28;20017;-75
2022/06/28 10:33:48;;;;;;;22.48;7.82;;;;;;;;;;5055885;28;20384;-76
2022/06/28 10:36:15;;;;;;;19.77;8.30;;;;;;;;;;5055816;28;20024;-77
2022/06/28 10:38:59;;;;;;;18.30;9.45;;;;;;;;;;5055771;28;20024;-76
2022/06/28 10:41:38;;;;;;;9.43;8.07;;;;;;;;;;5055663;28;20037;-76
2022/06/28 10:44:05;;;;;;;10.25;6.85;;;;;;;;;;5055717;28;20034;-75
2022/06/28 10:46:30;;;;;;;9.73;6.43;;;;;;;;;;5055608;28;20146;-74
2022/06/28 10:48:56;;;;;;;7.97;6.70;;;;;;;;;;5055414;28;20132;-75
2022/06/28 10:51:22;;;;;;;7.88;7.13;;;;;;;;;;5055868;28;20025;-75
2022/06/28 10:54:06;;;;;;;10.43;7.45;;;;;;;;;;5054263;28;20051;-74
2022/06/28 10:56:39;;;;;;;7.78;7.10;;;;;;;;;;5055541;28;20025;-75
2022/06/28 10:59:04;;;;;;;9.90;6.28;;;;;;;;;;5055402;28;20033;-75
2022/06/28 11:01:38;;;;;;;6.53;5.07;;;;;;;;;;5055299;28;20024;-76
2022/06/28 11:04:07;;;;;;;9.65;7.03;;;;;;;;;;5055299;28;20068;-74
2022/06/28 11:06:42;;;;;;;12.20;7.40;;;;;;;;;;5055192;28;20028;-76
2022/06/28 11:09:25;;;;;;;8.65;7.30;;;;;;;;;;5055096;28;20027;-75
2022/06/28 11:12:04;;;;;;;11.98;7.80;;;;;;;;;;5055151;28;20053;-75
2022/06/28 11:14:31;;;;;;;15.60;8.88;;;;;;;;;;5053790;28;20032;-75
2022/06/28 11:16:56;;;;;;;9.95;6.68;;;;;;;;;;5055054;28;20028;-76
2022/06/28 11:19:23;;;;;;;15.32;8.25;;;;;;;;;;5053737;28;20041;-75
2022/06/28 11:21:52;;;;;;;13.73;8.88;;;;;;;;;;5054456;28;20040;-75
2022/06/28 11:24:18;;;;;;;10.27;8.35;;;;;;;;;;5054932;28;20099;-75
2022/06/28 11:29:27;;;;;;;6.68;5.93;;;;;;;;;;5054741;28;20115;-75
2022/06/28 11:31:53;;;;;;;7.72;6.93;;;;;;;;;;5053549;28;20159;-75
2022/06/28 11:34:23;;;;;;;8.35;7.18;;;;;;;;;;5053653;28;20107;-75
2022/06/28 11:36:49;;;;;;;6.10;5.53;;;;;;;;;;5054802;28;20019;-75
2022/06/28 11:39:18;;;;;;;5.63;5.22;;;;;;;;;;5054651;28;20096;-74
2022/06/28 11:41:51;;;;;;;6.32;5.88;;;;;;;;;;5053425;28;20027;-75
2022/06/28 11:44:17;;;;;;;6.65;6.07;;;;;;;;;;5054555;28;20505;-74
2022/06/28 11:46:42;;;;;;;5.47;5.05;;;;;;;;;;5054486;28;20025;-75
2022/06/28 11:49:08;;;;;;;6.03;5.43;;;;;;;;;;5054273;28;20041;-75
2022/06/28 11:51:34;;;;;;;7.03;6.13;;;;;;;;;;5054440;28;20467;-73
2022/06/28 11:54:05;;;;;;;6.95;6.25;;;;;;;;;;5054429;28;20029;-74
2022/06/28 11:56:41;;;;;;;6.35;5.88;;;;;;;;;;5054485;28;20052;-74
2022/06/28 11:59:07;;;;;;;6.57;5.97;;;;;;;;;;5054263;28;20037;-75
2022/06/28 12:01:36;;;;;;;5.88;5.38;;;;;;;;;;5054292;28;20024;-75
2022/06/28 12:04:06;;;;;;;6.20;5.60;;;;;;;;;;5054244;28;20037;-74
2022/06/28 12:06:33;;;;;;;5.88;5.47;;;;;;;;;;5054207;28;20086;-75
2022/06/28 12:08:59;;;;;;;4.90;4.55;;;;;;;;;;5054816;28;20021;-75
2022/06/28 12:11:25;;;;;;;5.00;4.63;;;;;;;;;;5055339;28;20021;-75
2022/06/28 12:14:11;;;;;;;5.55;5.15;;;;;;;;;;5055175;28;20084;-75
2022/06/28 12:16:44;;;;;;;6.88;5.15;;;;;;;;;;5055042;28;20085;-74
2022/06/28 12:19:20;;;;;;;5.05;4.65;;;;;;;;;;5053821;28;20041;-74
2022/06/28 12:22:03;;;;;;;5.85;5.20;;;;;;;;;;5054886;28;20029;-75
2022/06/28 12:24:43;;;;;;;5.72;5.18;;;;;;;;;;5053754;28;20032;-73
2022/06/28 12:27:09;;;;;;;5.03;4.63;;;;;;;;;;5053985;28;20435;-75
2022/06/28 12:29:34;;;;;;;5.70;5.30;;;;;;;;;;5054574;28;20056;-74
2022/06/28 12:32:00;;;;;;;5.57;5.05;;;;;;;;;;5053340;28;20076;-74
2022/06/28 12:34:26;;;;;;;5.30;4.82;;;;;;;;;;5053811;28;20021;-74
2022/06/28 12:36:51;;;;;;;5.47;5.00;;;;;;;;;;5054596;28;20063;-73
2022/06/28 12:39:16;;;;;;;5.15;4.85;;;;;;;;;;5054547;28;20029;-75
2022/06/28 12:41:42;;;;;;;5.55;5.15;;;;;;;;;;5054537;28;20391;-76
2022/06/28 12:44:07;;;;;;;5.65;5.15;;;;;;;;;;5054566;28;20113;-75
2022/06/28 12:46:33;;;;;;;5.47;5.13;;;;;;;;;;5054456;28;20025;-75
2022/06/28 12:48:58;;;;;;;6.00;5.60;;;;;;;;;;5054386;28;20405;-75
2022/06/28 12:51:24;;;;;;;5.25;4.82;;;;;;;;;;5054393;28;20040;-74
2022/06/28 12:53:49;;;;;;;5.88;5.38;;;;;;;;;;5044161;23;20057;-74
2022/06/28 12:56:16;;;;;;;5.97;5.47;;;;;;;;;;5034694;28;20051;-74
2022/06/28 12:58:42;;;;;;;6.55;5.55;;;;;;;;;;5049728;28;20380;-75
2022/06/28 13:01:08;;;;;;;5.85;5.00;;;;;;;;;;5034342;28;20036;-75
2022/06/28 13:03:33;;;;;;;5.18;4.78;;;;;;;;;;5034573;28;20033;-75
2022/06/28 13:05:59;;;;;;;5.32;4.82;;;;;;;;;;5034534;28;20079;-74
2022/06/28 13:08:24;;;;;;;7.07;5.90;;;;;;;;;;5049499;28;20021;-75
2022/06/28 13:10:50;;;;;;;6.53;5.93;;;;;;;;;;5032881;28;20029;-74
2022/06/28 13:13:19;;;;;;;6.72;6.07;;;;;;;;;;5033512;28;20025;-75
2022/06/28 13:15:45;;;;;;;6.55;5.95;;;;;;;;;;5034084;28;20030;-75
2022/06/28 13:18:10;;;;;;;7.05;6.35;;;;;;;;;;5034038;28;20017;-74
2022/06/28 13:20:36;;;;;;;7.22;6.53;;;;;;;;;;5034225;28;20105;-74
2022/06/28 13:23:01;;;;;;;6.88;6.28;;;;;;;;;;5033885;28;20443;-75
2022/06/28 13:25:27;;;;;;;6.40;6.00;;;;;;;;;;5033946;28;20041;-75
2022/06/28 13:27:52;;;;;;;7.47;6.55;;;;;;;;;;5034223;28;20022;-76
2022/06/28 13:30:18;;;;;;;5.70;5.28;;;;;;;;;;5033822;28;20060;-74
2022/06/28 13:32:43;;;;;;;5.97;5.60;;;;;;;;;;5034151;28;20052;-75
2022/06/28 13:35:08;;;;;;;6.35;5.85;;;;;;;;;;5034111;28;20053;-75
2022/06/28 13:37:34;;;;;;;5.43;5.13;;;;;;;;;;5032636;28;20371;-74
2022/06/28 13:40:00;;;;;;;5.15;4.82;;;;;;;;;;5033746;28;20164;-74
2022/06/28 13:42:25;;;;;;;5.53;5.18;;;;;;;;;;5033752;28;20104;-74
2022/06/28 13:44:52;;;;;;;5.28;4.95;;;;;;;;;;5033466;28;20040;-74
2022/06/28 13:47:18;;;;;;;5.35;5.05;;;;;;;;;;5033783;28;20024;-75
2022/06/28 13:49:43;;;;;;;5.30;4.90;;;;;;;;;;5033597;28;20037;-75
2022/06/28 13:52:09;;;;;;;5.70;5.20;;;;;;;;;;5033193;28;20025;-74
2022/06/28 13:54:35;;;;;;;6.35;4.75;;;;;;;;;;5032438;28;20049;-75
2022/06/28 13:57:01;;;;;;;4.85;4.60;;;;;;;;;;5032496;28;20112;-74
2022/06/28 13:59:26;;;;;;;5.15;4.75;;;;;;;;;;5031445;28;20075;-74
2022/06/28 14:01:51;;;;;;;5.55;5.22;;;;;;;;;;5032577;28;20022;-75
2022/06/28 14:04:17;;;;;;;4.82;4.53;;;;;;;;;;5047831;28;20025;-74
2022/06/28 14:06:43;;;;;;;4.97;4.68;;;;;;;;;;5031154;28;20511;-74
2022/06/28 14:09:09;;;;;;;5.28;4.78;;;;;;;;;;5032407;28;20436;-75
2022/06/28 14:11:34;;;;;;;4.55;4.25;;;;;;;;;;5032394;28;20056;-75
2022/06/28 14:13:59;;;;;;;5.25;4.22;;;;;;;;;;5047770;28;20030;-74
2022/06/28 14:16:25;;;;;;;4.85;4.55;;;;;;;;;;5032415;28;20024;-74
2022/06/28 14:18:50;;;;;;;5.38;4.97;;;;;;;;;;5032283;28;20039;-74
2022/06/28 14:21:16;;;;;;;5.10;4.65;;;;;;;;;;5032499;28;20030;-74
2022/06/28 14:23:41;;;;;;;4.97;4.68;;;;;;;;;;5032367;28;20040;-74
2022/06/28 14:26:07;;;;;;;4.97;4.57;;;;;;;;;;5032302;28;20075;-74
2022/06/28 14:28:32;;;;;;;4.55;4.25;;;;;;;;;;5032419;28;20032;-74
2022/06/28 14:30:58;;;;;;;4.60;4.32;;;;;;;;;;5032229;28;20017;-74
2022/06/28 14:33:23;;;;;;;4.95;4.55;;;;;;;;;;5032202;28;20367;-74
2022/06/28 14:35:49;;;;;;;4.78;4.43;;;;;;;;;;5032131;28;20025;-75
2022/06/28 14:38:15;;;;;;;4.80;4.35;;;;;;;;;;5032110;28;20026;-75
2022/06/28 14:40:41;;;;;;;4.95;4.65;;;;;;;;;;5032086;28;20064;-64
2022/06/28 14:43:09;;;;;;;5.30;4.90;;;;;;;;;;5032230;28;20065;-71
2022/06/28 14:45:35;;;;;;;4.82;4.43;;;;;;;;;;5032834;28;20360;-72
2022/06/28 14:48:00;;;;;;;4.75;4.45;;;;;;;;;;5032067;28;20083;-72
2022/06/28 14:50:25;;;;;;;5.00;4.70;;;;;;;;;;5031985;28;20464;-72
2022/06/28 14:52:51;;;;;;;5.40;4.95;;;;;;;;;;5032653;28;20040;-72
2022/06/28 14:55:17;;;;;;;5.25;4.88;;;;;;;;;;5033640;28;20109;-72
2022/06/28 14:57:44;;;;;;;5.20;4.90;;;;;;;;;;5036350;28;20049;-72
2022/06/28 15:00:10;;;;;;;4.90;4.45;;;;;;;;;;5036919;28;20079;-77
2022/06/28 15:02:36;;;;;;;4.82;4.55;;;;;;;;;;5036383;28;20383;-73
2022/06/28 15:05:02;;;;;;;4.53;4.22;;;;;;;;;;5037110;28;20345;-74
2022/06/28 15:07:28;;;;;;;5.03;4.57;;;;;;;;;;5035236;28;20028;-74